sensor_id;sensor_type;location;lat;lon;timestamp;pressure;altitude;pressure_sealevel;temperature;humidity
19023;BME280;35226;48.606;8.858;2023-02-11T00:01:49;98191.72;;;-2.98;100.00
19023;BME280;35226;48.606;8.858;2023-02-11T00:04:14;98197.72;;;-3.01;100.00
19023;BME280;35226;48.606;8.858;2023-02-11T00:06:40;98188.34;;;-3.04;100.00
19023;BME280;35226;48.606;8.858;2023-02-11T00:09:06;98198.19;;;-3.08;100.00
19023;BME280;35226;48.606;8.858;2023-02-11T00:11:32;98201.00;;;-3.13;100.00
19023;BME280;35226;48.606;8.858;2023-02-11T00:14:00;98188.59;;;-3.14;100.00
19023;BME280;35226;48.606;8.858;2023-02-11T00:16:26;98183.31;;;-3.19;100.00
19023;BME280;35226;48.606;8.858;2023-02-11T00:18:53;98186.81;;;-3.18;100.00
19023;BME280;35226;48.606;8.858;2023-02-11T00:21:24;98190.94;;;-3.21;100.00
19023;BME280;35226;48.606;8.858;2023-02-11T00:23:50;98187.72;;;-3.23;100.00
19023;BME280;35226;48.606;8.858;2023-02-11T00:26:23;98189.47;;;-3.27;100.00
19023;BME280;35226;48.606;8.858;2023-02-11T00:28:50;98191.66;;;-3.29;100.00
19023;BME280;35226;48.606;8.858;2023-02-11T00:31:18;98190.38;;;-3.31;100.00
19023;BME280;35226;48.606;8.858;2023-02-11T00:33:44;98190.69;;;-3.33;100.00
19023;BME280;35226;48.606;8.858;2023-02-11T00:36:15;98194.09;;;-3.41;100.00
19023;BME280;35226;48.606;8.858;2023-02-11T00:38:45;98189.69;;;-3.37;100.00
19023;BME280;35226;48.606;8.858;2023-02-11T00:41:12;98192.56;;;-3.56;100.00
19023;BME280;35226;48.606;8.858;2023-02-11T00:43:39;98180.59;;;-3.41;100.00
19023;BME280;35226;48.606;8.858;2023-02-11T00:46:05;98179.63;;;-3.45;100.00
19023;BME280;35226;48.606;8.858;2023-02-11T00:48:31;98172.94;;;-3.48;100.00
19023;BME280;35226;48.606;8.858;2023-02-11T00:50:59;98186.75;;;-3.49;100.00
19023;BME280;35226;48.606;8.858;2023-02-11T00:53:25;98184.47;;;-3.56;100.00
19023;BME280;35226;48.606;8.858;2023-02-11T00:55:51;98176.53;;;-3.52;100.00
19023;BME280;35226;48.606;8.858;2023-02-11T00:58:17;98172.06;;;-3.57;100.00
19023;BME280;35226;48.606;8.858;2023-02-11T01:00:42;98174.53;;;-3.47;100.00
19023;BME280;35226;48.606;8.858;2023-02-11T01:03:08;98175.03;;;-3.45;100.00
19023;BME280;35226;48.606;8.858;2023-02-11T01:05:33;98186.31;;;-3.43;100.00
19023;BME280;35226;48.606;8.858;2023-02-11T01:07:59;98188.13;;;-3.52;100.00
19023;BME280;35226;48.606;8.858;2023-02-11T01:10:24;98187.97;;;-3.55;100.00
19023;BME280;35226;48.606;8.858;2023-02-11T01:12:51;98183.09;;;-3.67;100.00
19023;BME280;35226;48.606;8.858;2023-02-11T01:15:18;98179.88;;;-3.55;100.00
19023;BME280;35226;48.606;8.858;2023-02-11T01:17:44;98180.53;;;-3.50;100.00
19023;BME280;35226;48.606;8.858;2023-02-11T01:20:18;98166.97;;;-3.58;100.00
19023;BME280;35226;48.606;8.858;2023-02-11T01:22:44;98167.25;;;-3.60;100.00
19023;BME280;35226;48.606;8.858;2023-02-11T01:25:10;98163.09;;;-3.66;100.00
19023;BME280;35226;48.606;8.858;2023-02-11T01:27:36;98169.28;;;-3.65;100.00
19023;BME280;35226;48.606;8.858;2023-02-11T01:30:04;98163.91;;;-3.65;100.00
19023;BME280;35226;48.606;8.858;2023-02-11T01:32:30;98158.38;;;-3.60;100.00
19023;BME280;35226;48.606;8.858;2023-02-11T01:34:56;98156.34;;;-3.55;100.00
19023;BME280;35226;48.606;8.858;2023-02-11T01:37:21;98155.06;;;-3.57;100.00
19023;BME280;35226;48.606;8.858;2023-02-11T01:39:47;98146.06;;;-3.53;100.00
19023;BME280;35226;48.606;8.858;2023-02-11T01:42:18;98145.41;;;-3.72;100.00
19023;BME280;35226;48.606;8.858;2023-02-11T01:44:44;98144.44;;;-3.76;100.00
19023;BME280;35226;48.606;8.858;2023-02-11T01:47:10;98143.38;;;-3.66;100.00
19023;BME280;35226;48.606;8.858;2023-02-11T01:52:31;98142.78;;;-3.63;100.00
19023;BME280;35226;48.606;8.858;2023-02-11T01:55:04;98131.97;;;-3.63;100.00
19023;BME280;35226;48.606;8.858;2023-02-11T01:57:54;98131.19;;;-3.64;100.00
19023;BME280;35226;48.606;8.858;2023-02-11T02:00:24;98134.59;;;-3.72;100.00
19023;BME280;35226;48.606;8.858;2023-02-11T02:03:00;98122.59;;;-3.66;100.00
19023;BME280;35226;48.606;8.858;2023-02-11T02:10:27;98125.72;;;-3.72;100.00
19023;BME280;35226;48.606;8.858;2023-02-11T02:12:54;98127.28;;;-3.72;100.00
19023;BME280;35226;48.606;8.858;2023-02-11T02:15:31;98124.41;;;-3.75;100.00
19023;BME280;35226;48.606;8.858;2023-02-11T02:18:01;98125.25;;;-3.88;100.00
19023;BME280;35226;48.606;8.858;2023-02-11T02:23:21;98110.72;;;-3.79;100.00
19023;BME280;35226;48.606;8.858;2023-02-11T02:26:11;98107.72;;;-3.77;100.00
19023;BME280;35226;48.606;8.858;2023-02-11T02:29:04;98109.91;;;-3.79;100.00
19023;BME280;35226;48.606;8.858;2023-02-11T02:37:22;98097.16;;;-3.87;100.00
19023;BME280;35226;48.606;8.858;2023-02-11T02:39:50;98091.75;;;-3.87;100.00
19023;BME280;35226;48.606;8.858;2023-02-11T02:42:17;98097.47;;;-3.89;100.00
19023;BME280;35226;48.606;8.858;2023-02-11T02:44:48;98088.56;;;-3.89;100.00
19023;BME280;35226;48.606;8.858;2023-02-11T02:47:14;98088.19;;;-3.96;100.00
19023;BME280;35226;48.606;8.858;2023-02-11T02:49:40;98086.59;;;-3.97;100.00
19023;BME280;35226;48.606;8.858;2023-02-11T02:52:38;98086.53;;;-4.06;100.00
19023;BME280;35226;48.606;8.858;2023-02-11T03:01:49;98087.19;;;-4.00;100.00
19023;BME280;35226;48.606;8.858;2023-02-11T03:12:13;98078.00;;;-3.99;100.00
19023;BME280;35226;48.606;8.858;2023-02-11T03:14:40;98088.06;;;-3.91;100.00
19023;BME280;35226;48.606;8.858;2023-02-11T03:17:07;98086.41;;;-4.01;100.00
19023;BME280;35226;48.606;8.858;2023-02-11T03:19:37;98083.97;;;-3.89;100.00
19023;BME280;35226;48.606;8.858;2023-02-11T03:22:07;98090.53;;;-3.81;100.00
19023;BME280;35226;48.606;8.858;2023-02-11T03:24:37;98077.75;;;-3.89;100.00
19023;BME280;35226;48.606;8.858;2023-02-11T03:30:15;98075.22;;;-4.08;100.00
19023;BME280;35226;48.606;8.858;2023-02-11T03:33:06;98074.03;;;-4.02;100.00
19023;BME280;35226;48.606;8.858;2023-02-11T03:35:44;98074.91;;;-3.93;100.00
19023;BME280;35226;48.606;8.858;2023-02-11T03:38:18;98083.78;;;-3.92;100.00
19023;BME280;35226;48.606;8.858;2023-02-11T03:40:46;98089.50;;;-3.94;100.00
19023;BME280;35226;48.606;8.858;2023-02-11T03:43:16;98094.59;;;-3.92;100.00
19023;BME280;35226;48.606;8.858;2023-02-11T03:45:45;98099.25;;;-3.84;100.00
19023;BME280;35226;48.606;8.858;2023-02-11T03:48:20;98096.66;;;-3.89;100.00
19023;BME280;35226;48.606;8.858;2023-02-11T03:50:47;98100.47;;;-3.90;100.00
19023;BME280;35226;48.606;8.858;2023-02-11T03:53:15;98102.19;;;-3.94;100.00
19023;BME280;35226;48.606;8.858;2023-02-11T03:55:43;98090.66;;;-3.86;100.00
19023;BME280;35226;48.606;8.858;2023-02-11T03:58:10;98086.28;;;-3.96;100.00
19023;BME280;35226;48.606;8.858;2023-02-11T04:00:38;98057.91;;;-3.93;100.00
19023;BME280;35226;48.606;8.858;2023-02-11T04:03:06;98049.75;;;-4.02;100.00
19023;BME280;35226;48.606;8.858;2023-02-11T04:05:32;98043.28;;;-3.92;100.00
19023;BME280;35226;48.606;8.858;2023-02-11T04:07:57;98064.31;;;-3.81;100.00
19023;BME280;35226;48.606;8.858;2023-02-11T04:10:23;98062.13;;;-3.79;100.00
19023;BME280;35226;48.606;8.858;2023-02-11T04:12:48;98075.13;;;-3.81;100.00
19023;BME280;35226;48.606;8.858;2023-02-11T04:15:14;98063.06;;;-3.83;100.00
19023;BME280;35226;48.606;8.858;2023-02-11T04:17:40;98058.75;;;-3.84;100.00
19023;BME280;35226;48.606;8.858;2023-02-11T04:20:06;98062.72;;;-3.82;100.00
19023;BME280;35226;48.606;8.858;2023-02-11T04:22:32;98062.78;;;-3.95;100.00
19023;BME280;35226;48.606;8.858;2023-02-11T04:24:57;98078.56;;;-3.89;100.00
19023;BME280;35226;48.606;8.858;2023-02-11T04:27:24;98076.59;;;-3.97;100.00
19023;BME280;35226;48.606;8.858;2023-02-11T04:29:50;98068.41;;;-3.92;100.00
19023;BME280;35226;48.606;8.858;2023-02-11T04:32:15;98081.41;;;-3.94;100.00
19023;BME280;35226;48.606;8.858;2023-02-11T04:34:41;98073.97;;;-3.88;100.00
19023;BME280;35226;48.606;8.858;2023-02-11T04:37:07;98085.56;;;-3.88;100.00
19023;BME280;35226;48.606;8.858;2023-02-11T04:39:33;98091.97;;;-3.84;100.00
19023;BME280;35226;48.606;8.858;2023-02-11T04:41:59;98088.47;;;-3.84;100.00
19023;BME280;35226;48.606;8.858;2023-02-11T04:44:24;98089.00;;;-3.74;100.00
19023;BME280;35226;48.606;8.858;2023-02-11T04:46:50;98081.38;;;-3.72;100.00
19023;BME280;35226;48.606;8.858;2023-02-11T04:49:16;98089.19;;;-3.70;100.00
19023;BME280;35226;48.606;8.858;2023-02-11T04:51:42;98082.00;;;-3.75;100.00
19023;BME280;35226;48.606;8.858;2023-02-11T04:54:09;98086.06;;;-3.63;100.00
19023;BME280;35226;48.606;8.858;2023-02-11T04:56:35;98075.19;;;-3.72;100.00
19023;BME280;35226;48.606;8.858;2023-02-11T04:59:01;98082.63;;;-3.55;100.00
19023;BME280;35226;48.606;8.858;2023-02-11T05:01:26;98067.22;;;-3.55;100.00
19023;BME280;35226;48.606;8.858;2023-02-11T05:03:52;98082.06;;;-3.66;100.00
19023;BME280;35226;48.606;8.858;2023-02-11T05:06:17;98077.28;;;-3.69;100.00
19023;BME280;35226;48.606;8.858;2023-02-11T05:08:43;98074.78;;;-3.65;100.00
19023;BME280;35226;48.606;8.858;2023-02-11T05:11:15;98069.47;;;-3.70;100.00
19023;BME280;35226;48.606;8.858;2023-02-11T05:13:42;98070.16;;;-3.65;100.00
19023;BME280;35226;48.606;8.858;2023-02-11T05:16:08;98071.75;;;-3.64;100.00
19023;BME280;35226;48.606;8.858;2023-02-11T05:18:36;98063.81;;;-3.60;100.00
19023;BME280;35226;48.606;8.858;2023-02-11T05:21:10;98062.34;;;-3.44;100.00
19023;BME280;35226;48.606;8.858;2023-02-11T05:23:36;98071.56;;;-3.45;100.00
19023;BME280;35226;48.606;8.858;2023-02-11T05:26:03;98066.47;;;-3.47;100.00
19023;BME280;35226;48.606;8.858;2023-02-11T05:28:29;98067.88;;;-3.49;100.00
19023;BME280;35226;48.606;8.858;2023-02-11T05:30:54;98056.56;;;-3.51;100.00
19023;BME280;35226;48.606;8.858;2023-02-11T05:33:20;98049.53;;;-3.61;100.00
19023;BME280;35226;48.606;8.858;2023-02-11T05:35:45;98049.94;;;-3.45;100.00
19023;BME280;35226;48.606;8.858;2023-02-11T05:38:11;98038.41;;;-3.59;100.00
19023;BME280;35226;48.606;8.858;2023-02-11T05:40:37;98035.75;;;-3.51;100.00
19023;BME280;35226;48.606;8.858;2023-02-11T05:43:02;98033.50;;;-3.57;100.00
19023;BME280;35226;48.606;8.858;2023-02-11T05:45:28;98043.44;;;-3.44;100.00
19023;BME280;35226;48.606;8.858;2023-02-11T05:47:53;98051.72;;;-3.41;100.00
19023;BME280;35226;48.606;8.858;2023-02-11T05:50:19;98042.06;;;-3.33;100.00
19023;BME280;35226;48.606;8.858;2023-02-11T05:52:45;98040.25;;;-3.46;100.00
19023;BME280;35226;48.606;8.858;2023-02-11T05:55:10;98028.28;;;-3.54;100.00
19023;BME280;35226;48.606;8.858;2023-02-11T05:57:36;98015.41;;;-3.57;100.00
19023;BME280;35226;48.606;8.858;2023-02-11T06:00:03;98011.09;;;-3.58;100.00
19023;BME280;35226;48.606;8.858;2023-02-11T06:02:37;98007.28;;;-3.57;100.00
19023;BME280;35226;48.606;8.858;2023-02-11T06:05:03;97991.97;;;-3.39;100.00
19023;BME280;35226;48.606;8.858;2023-02-11T06:07:29;97988.69;;;-3.58;100.00
19023;BME280;35226;48.606;8.858;2023-02-11T06:09:54;97994.28;;;-3.55;100.00
19023;BME280;35226;48.606;8.858;2023-02-11T06:12:20;98002.28;;;-3.41;100.00
19023;BME280;35226;48.606;8.858;2023-02-11T06:14:45;97993.63;;;-3.52;100.00
19023;BME280;35226;48.606;8.858;2023-02-11T06:17:11;98013.03;;;-3.50;100.00
19023;BME280;35226;48.606;8.858;2023-02-11T06:19:36;98014.09;;;-3.28;100.00
19023;BME280;35226;48.606;8.858;2023-02-11T06:22:02;98010.47;;;-3.24;100.00
19023;BME280;35226;48.606;8.858;2023-02-11T06:24:28;98016.31;;;-3.30;100.00
19023;BME280;35226;48.606;8.858;2023-02-11T06:26:53;98027.94;;;-3.21;100.00
19023;BME280;35226;48.606;8.858;2023-02-11T06:29:19;98029.06;;;-3.22;100.00
19023;BME280;35226;48.606;8.858;2023-02-11T06:31:44;98042.75;;;-3.19;100.00
19023;BME280;35226;48.606;8.858;2023-02-11T06:34:10;98043.06;;;-3.20;100.00
19023;BME280;35226;48.606;8.858;2023-02-11T06:36:37;98058.38;;;-3.16;100.00
19023;BME280;35226;48.606;8.858;2023-02-11T06:39:04;98045.34;;;-3.14;100.00
19023;BME280;35226;48.606;8.858;2023-02-11T06:41:29;98051.69;;;-3.10;100.00
19023;BME280;35226;48.606;8.858;2023-02-11T06:43:55;98060.59;;;-3.09;100.00
19023;BME280;35226;48.606;8.858;2023-02-11T06:46:20;98059.69;;;-3.05;100.00
19023;BME280;35226;48.606;8.858;2023-02-11T06:48:46;98058.09;;;-3.06;100.00
19023;BME280;35226;48.606;8.858;2023-02-11T06:51:13;98051.56;;;-3.05;100.00
19023;BME280;35226;48.606;8.858;2023-02-11T06:53:41;98043.31;;;-3.00;100.00
19023;BME280;35226;48.606;8.858;2023-02-11T06:56:10;98047.31;;;-2.97;100.00
19023;BME280;35226;48.606;8.858;2023-02-11T06:58:39;98037.13;;;-2.91;100.00
19023;BME280;35226;48.606;8.858;2023-02-11T07:01:06;98035.72;;;-2.89;100.00
19023;BME280;35226;48.606;8.858;2023-02-11T07:03:37;98033.81;;;-2.88;100.00
19023;BME280;35226;48.606;8.858;2023-02-11T07:06:05;98042.56;;;-2.83;100.00
19023;BME280;35226;48.606;8.858;2023-02-11T07:08:36;98044.34;;;-2.78;100.00
19023;BME280;35226;48.606;8.858;2023-02-11T07:11:08;98046.88;;;-2.73;100.00
19023;BME280;35226;48.606;8.858;2023-02-11T07:13:34;98050.09;;;-2.71;100.00
19023;BME280;35226;48.606;8.858;2023-02-11T07:16:06;98052.16;;;-2.68;100.00
19023;BME280;35226;48.606;8.858;2023-02-11T07:18:32;98053.78;;;-2.67;100.00
19023;BME280;35226;48.606;8.858;2023-02-11T07:20:57;98065.38;;;-2.67;100.00
19023;BME280;35226;48.606;8.858;2023-02-11T07:23:23;98051.03;;;-2.76;100.00
19023;BME280;35226;48.606;8.858;2023-02-11T07:25:48;98065.66;;;-2.77;100.00
19023;BME280;35226;48.606;8.858;2023-02-11T07:28:14;98059.31;;;-2.64;100.00
19023;BME280;35226;48.606;8.858;2023-02-11T07:30:39;98062.00;;;-2.72;100.00
19023;BME280;35226;48.606;8.858;2023-02-11T07:33:05;98069.50;;;-2.69;100.00
19023;BME280;35226;48.606;8.858;2023-02-11T07:35:31;98065.06;;;-2.65;100.00
19023;BME280;35226;48.606;8.858;2023-02-11T07:37:56;98058.06;;;-2.75;100.00
19023;BME280;35226;48.606;8.858;2023-02-11T07:40:22;98059.63;;;-2.74;100.00
19023;BME280;35226;48.606;8.858;2023-02-11T07:42:47;98053.00;;;-2.50;100.00
19023;BME280;35226;48.606;8.858;2023-02-11T07:45:13;98058.28;;;-2.45;100.00
19023;BME280;35226;48.606;8.858;2023-02-11T07:47:38;98061.59;;;-2.57;100.00
19023;BME280;35226;48.606;8.858;2023-02-11T07:50:04;98071.44;;;-2.52;100.00
19023;BME280;35226;48.606;8.858;2023-02-11T07:52:31;98077.22;;;-2.45;100.00
19023;BME280;35226;48.606;8.858;2023-02-11T07:54:56;98088.84;;;-2.36;100.00
19023;BME280;35226;48.606;8.858;2023-02-11T07:57:22;98089.66;;;-2.27;100.00
19023;BME280;35226;48.606;8.858;2023-02-11T07:59:47;98090.94;;;-2.25;100.00
19023;BME280;35226;48.606;8.858;2023-02-11T08:02:13;98090.94;;;-2.25;100.00
19023;BME280;35226;48.606;8.858;2023-02-11T08:04:39;98079.34;;;-2.16;100.00
19023;BME280;35226;48.606;8.858;2023-02-11T08:07:04;98077.75;;;-2.09;100.00
19023;BME280;35226;48.606;8.858;2023-02-11T08:09:31;98075.66;;;-2.03;100.00
19023;BME280;35226;48.606;8.858;2023-02-11T08:11:56;98074.88;;;-1.95;100.00
19023;BME280;35226;48.606;8.858;2023-02-11T08:14:22;98067.88;;;-1.96;100.00
19023;BME280;35226;48.606;8.858;2023-02-11T08:16:49;98072.16;;;-1.95;100.00
19023;BME280;35226;48.606;8.858;2023-02-11T08:19:16;98064.50;;;-1.84;100.00
19023;BME280;35226;48.606;8.858;2023-02-11T08:21:42;98050.97;;;-1.76;100.00
19023;BME280;35226;48.606;8.858;2023-02-11T08:24:08;98048.91;;;-1.70;100.00
19023;BME280;35226;48.606;8.858;2023-02-11T08:26:34;98054.31;;;-1.70;100.00
19023;BME280;35226;48.606;8.858;2023-02-11T08:29:01;98049.03;;;-1.58;100.00
19023;BME280;35226;48.606;8.858;2023-02-11T08:31:31;98047.59;;;-1.56;100.00
19023;BME280;35226;48.606;8.858;2023-02-11T08:33:57;98039.59;;;-1.43;100.00
19023;BME280;35226;48.606;8.858;2023-02-11T08:36:25;98044.84;;;-1.38;100.00
19023;BME280;35226;48.606;8.858;2023-02-11T08:38:57;98043.38;;;-1.19;100.00
19023;BME280;35226;48.606;8.858;2023-02-11T08:41:24;98044.13;;;-1.09;100.00
19023;BME280;35226;48.606;8.858;2023-02-11T08:43:50;98043.13;;;-1.05;100.00
19023;BME280;35226;48.606;8.858;2023-02-11T08:46:17;98046.94;;;-0.97;100.00
19023;BME280;35226;48.606;8.858;2023-02-11T08:48:44;98039.72;;;-0.85;100.00
19023;BME280;35226;48.606;8.858;2023-02-11T08:51:28;98049.88;;;-0.73;100.00
19023;BME280;35226;48.606;8.858;2023-02-11T08:53:57;98053.19;;;-0.67;100.00
19023;BME280;35226;48.606;8.858;2023-02-11T08:56:24;98045.78;;;-0.58;100.00
19023;BME280;35226;48.606;8.858;2023-02-11T08:58:50;98051.19;;;-0.50;100.00
19023;BME280;35226;48.606;8.858;2023-02-11T09:01:19;98046.81;;;-0.42;100.00
19023;BME280;35226;48.606;8.858;2023-02-11T09:03:46;98046.63;;;-0.37;100.00
19023;BME280;35226;48.606;8.858;2023-02-11T09:06:12;98047.72;;;-0.29;100.00
19023;BME280;35226;48.606;8.858;2023-02-11T09:08:41;98045.72;;;-0.20;100.00
19023;BME280;35226;48.606;8.858;2023-02-11T09:11:07;98037.13;;;-0.22;100.00
19023;BME280;35226;48.606;8.858;2023-02-11T09:13:33;98025.84;;;-0.12;100.00
19023;BME280;35226;48.606;8.858;2023-02-11T09:15:59;98027.44;;;-0.11;100.00
19023;BME280;35226;48.606;8.858;2023-02-11T09:18:25;98034.25;;;-0.05;100.00
19023;BME280;35226;48.606;8.858;2023-02-11T09:20:57;98042.16;;;0.09;100.00
19023;BME280;35226;48.606;8.858;2023-02-11T09:23:26;98040.41;;;0.25;100.00
19023;BME280;35226;48.606;8.858;2023-02-11T09:25:51;98035.69;;;0.34;100.00
19023;BME280;35226;48.606;8.858;2023-02-11T09:28:17;98048.13;;;0.56;100.00
19023;BME280;35226;48.606;8.858;2023-02-11T09:30:42;98032.59;;;0.56;100.00
19023;BME280;35226;48.606;8.858;2023-02-11T09:33:08;98028.66;;;0.66;100.00
19023;BME280;35226;48.606;8.858;2023-02-11T09:35:36;98034.13;;;0.78;100.00
19023;BME280;35226;48.606;8.858;2023-02-11T09:38:01;98041.19;;;1.03;100.00
19023;BME280;35226;48.606;8.858;2023-02-11T09:40:27;98045.41;;;1.25;100.00
19023;BME280;35226;48.606;8.858;2023-02-11T09:43:06;98042.44;;;1.30;100.00
19023;BME280;35226;48.606;8.858;2023-02-11T09:45:35;98040.06;;;1.41;100.00
19023;BME280;35226;48.606;8.858;2023-02-11T09:50:39;98036.19;;;1.66;100.00
19023;BME280;35226;48.606;8.858;2023-02-11T09:55:42;98031.16;;;1.80;100.00
19023;BME280;35226;48.606;8.858;2023-02-11T09:58:15;98030.16;;;1.73;100.00
19023;BME280;35226;48.606;8.858;2023-02-11T10:00:45;98037.44;;;1.69;100.00
19023;BME280;35226;48.606;8.858;2023-02-11T10:06:52;98040.97;;;2.09;100.00
19023;BME280;35226;48.606;8.858;2023-02-11T10:12:33;98036.47;;;2.57;100.00
19023;BME280;35226;48.606;8.858;2023-02-11T10:23:14;98035.34;;;3.68;100.00
19023;BME280;35226;48.606;8.858;2023-02-11T10:25:46;98035.91;;;3.93;100.00
19023;BME280;35226;48.606;8.858;2023-02-11T10:28:19;98034.72;;;4.09;100.00
19023;BME280;35226;48.606;8.858;2023-02-11T10:30:58;98033.63;;;4.53;100.00
19023;BME280;35226;48.606;8.858;2023-02-11T10:36:11;98024.50;;;4.87;100.00
19023;BME280;35226;48.606;8.858;2023-02-11T10:38:37;98019.47;;;5.12;100.00
19023;BME280;35226;48.606;8.858;2023-02-11T10:41:03;98016.00;;;5.15;100.00
19023;BME280;35226;48.606;8.858;2023-02-11T10:43:31;98021.84;;;5.13;100.00
19023;BME280;35226;48.606;8.858;2023-02-11T10:45:58;98018.13;;;5.25;100.00
19023;BME280;35226;48.606;8.858;2023-02-11T10:48:47;98016.19;;;5.52;100.00
19023;BME280;35226;48.606;8.858;2023-02-11T10:56:30;98021.75;;;5.82;100.00
19023;BME280;35226;48.606;8.858;2023-02-11T11:01:46;98005.13;;;5.98;100.00
19023;BME280;35226;48.606;8.858;2023-02-11T11:06:55;98003.50;;;6.23;100.00
19023;BME280;35226;48.606;8.858;2023-02-11T11:09:28;97994.56;;;6.29;100.00
19023;BME280;35226;48.606;8.858;2023-02-11T11:11:56;97986.81;;;7.16;100.00
19023;BME280;35226;48.606;8.858;2023-02-11T11:14:23;97989.50;;;6.68;100.00
19023;BME280;35226;48.606;8.858;2023-02-11T11:16:53;97987.94;;;6.67;100.00
19023;BME280;35226;48.606;8.858;2023-02-11T11:19:24;97973.00;;;7.57;100.00
19023;BME280;35226;48.606;8.858;2023-02-11T11:21:51;97977.50;;;7.24;100.00
19023;BME280;35226;48.606;8.858;2023-02-11T11:24:21;97972.84;;;6.88;100.00
19023;BME280;35226;48.606;8.858;2023-02-11T11:26:49;97972.94;;;6.98;100.00
19023;BME280;35226;48.606;8.858;2023-02-11T11:31:49;97968.22;;;7.43;100.00
19023;BME280;35226;48.606;8.858;2023-02-11T11:34:26;97977.09;;;7.80;100.00
19023;BME280;35226;48.606;8.858;2023-02-11T11:36:54;97980.75;;;8.02;100.00
19023;BME280;35226;48.606;8.858;2023-02-11T11:39:29;97974.00;;;9.08;94.27
19023;BME280;35226;48.606;8.858;2023-02-11T11:42:00;97970.44;;;8.89;89.56
19023;BME280;35226;48.606;8.858;2023-02-11T11:44:35;97980.25;;;8.83;97.42
19023;BME280;35226;48.606;8.858;2023-02-11T11:50:08;97965.69;;;8.76;93.13
19023;BME280;35226;48.606;8.858;2023-02-11T11:52:52;97959.44;;;8.89;90.39
19023;BME280;35226;48.606;8.858;2023-02-11T11:57:44;97964.56;;;9.34;84.91
19023;BME280;35226;48.606;8.858;2023-02-11T12:00:20;97962.19;;;9.43;84.95
19023;BME280;35226;48.606;8.858;2023-02-11T12:08:03;97952.34;;;9.27;84.75
19023;BME280;35226;48.606;8.858;2023-02-11T12:21:35;97961.34;;;9.71;73.12
19023;BME280;35226;48.606;8.858;2023-02-11T12:26:50;97953.41;;;10.01;75.59
19023;BME280;35226;48.606;8.858;2023-02-11T12:43:35;97939.38;;;11.61;66.87
19023;BME280;35226;48.606;8.858;2023-02-11T12:52:05;97935.06;;;10.57;67.73
19023;BME280;35226;48.606;8.858;2023-02-11T12:57:16;97932.31;;;10.50;71.35
19023;BME280;35226;48.606;8.858;2023-02-11T13:05:28;97935.66;;;10.02;78.16
19023;BME280;35226;48.606;8.858;2023-02-11T13:08:08;97933.66;;;10.06;78.31
19023;BME280;35226;48.606;8.858;2023-02-11T13:10:39;97932.88;;;10.02;78.15
19023;BME280;35226;48.606;8.858;2023-02-11T13:13:26;97926.53;;;10.12;77.10
19023;BME280;35226;48.606;8.858;2023-02-11T13:16:02;97921.44;;;10.03;75.83
19023;BME280;35226;48.606;8.858;2023-02-11T13:21:35;97917.56;;;9.83;77.38
19023;BME280;35226;48.606;8.858;2023-02-11T13:27:00;97911.25;;;9.86;72.36
19023;BME280;35226;48.606;8.858;2023-02-11T13:32:20;97902.50;;;10.06;73.10
19023;BME280;35226;48.606;8.858;2023-02-11T13:34:54;97906.00;;;10.17;72.23
19023;BME280;35226;48.606;8.858;2023-02-11T13:40:00;97912.31;;;10.28;70.79
19023;BME280;35226;48.606;8.858;2023-02-11T13:42:28;97912.25;;;10.35;69.34
19023;BME280;35226;48.606;8.858;2023-02-11T13:44:55;97909.91;;;10.33;69.57
19023;BME280;35226;48.606;8.858;2023-02-11T13:49:53;97910.31;;;10.32;68.58
19023;BME280;35226;48.606;8.858;2023-02-11T13:52:29;97906.84;;;10.03;68.93
19023;BME280;35226;48.606;8.858;2023-02-11T13:55:04;97900.53;;;9.99;69.49
19023;BME280;35226;48.606;8.858;2023-02-11T13:57:34;97906.06;;;9.99;69.89
19023;BME280;35226;48.606;8.858;2023-02-11T14:14:23;97914.06;;;9.65;77.10
19023;BME280;35226;48.606;8.858;2023-02-11T14:22:12;97909.00;;;9.35;80.17
19023;BME280;35226;48.606;8.858;2023-02-11T14:24:54;97914.94;;;9.05;80.61
19023;BME280;35226;48.606;8.858;2023-02-11T14:27:27;97902.72;;;8.78;82.98
19023;BME280;35226;48.606;8.858;2023-02-11T14:30:34;97908.22;;;8.85;85.13
19023;BME280;35226;48.606;8.858;2023-02-11T14:36:47;97905.44;;;8.64;89.12
19023;BME280;35226;48.606;8.858;2023-02-11T14:39:23;97911.34;;;8.55;92.05
19023;BME280;35226;48.606;8.858;2023-02-11T14:41:51;97905.03;;;8.51;93.17
19023;BME280;35226;48.606;8.858;2023-02-11T14:44:20;97908.97;;;8.46;94.65
19023;BME280;35226;48.606;8.858;2023-02-11T14:46:48;97915.25;;;8.47;95.49
19023;BME280;35226;48.606;8.858;2023-02-11T14:49:36;97914.88;;;8.48;96.60
19023;BME280;35226;48.606;8.858;2023-02-11T14:52:29;97914.75;;;8.20;98.95
19023;BME280;35226;48.606;8.858;2023-02-11T14:55:15;97913.56;;;8.17;100.00
19023;BME280;35226;48.606;8.858;2023-02-11T14:57:43;97917.88;;;8.11;100.00
19023;BME280;35226;48.606;8.858;2023-02-11T15:00:20;97912.72;;;8.06;100.00
19023;BME280;35226;48.606;8.858;2023-02-11T15:02:46;97908.38;;;7.98;100.00
19023;BME280;35226;48.606;8.858;2023-02-11T15:05:26;97910.31;;;7.94;100.00
19023;BME280;35226;48.606;8.858;2023-02-11T15:07:57;97914.66;;;7.92;100.00
19023;BME280;35226;48.606;8.858;2023-02-11T15:10:42;97921.31;;;7.87;100.00
19023;BME280;35226;48.606;8.858;2023-02-11T15:13:17;97927.56;;;7.80;100.00
19023;BME280;35226;48.606;8.858;2023-02-11T15:15:44;97931.06;;;7.74;100.00
19023;BME280;35226;48.606;8.858;2023-02-11T15:18:17;97931.03;;;7.63;100.00
19023;BME280;35226;48.606;8.858;2023-02-11T15:20:47;97933.03;;;7.73;100.00
19023;BME280;35226;48.606;8.858;2023-02-11T15:23:20;97930.66;;;7.68;100.00
19023;BME280;35226;48.606;8.858;2023-02-11T15:25:46;97932.13;;;7.55;100.00
19023;BME280;35226;48.606;8.858;2023-02-11T15:28:26;97929.72;;;7.43;100.00
19023;BME280;35226;48.606;8.858;2023-02-11T15:31:04;97935.22;;;7.43;100.00
19023;BME280;35226;48.606;8.858;2023-02-11T15:33:31;97943.81;;;7.38;100.00
19023;BME280;35226;48.606;8.858;2023-02-11T15:36:01;97940.25;;;7.34;100.00
19023;BME280;35226;48.606;8.858;2023-02-11T15:38:27;97939.44;;;7.30;100.00
19023;BME280;35226;48.606;8.858;2023-02-11T15:40:58;97940.19;;;7.27;100.00
19023;BME280;35226;48.606;8.858;2023-02-11T15:43:49;97943.69;;;7.20;100.00
19023;BME280;35226;48.606;8.858;2023-02-11T15:46:20;97941.31;;;7.19;100.00